Time;durP1;ratioP1;P1;durP2;ratioP2;P2;SDS_P1;SDS_P2;PMS_P1;PMS_P2;Temp;Humidity;BMP_temperature;BMP_pressure;BME280_temperature;BME280_humidity;BME280_pressure;Samples;Min_cycle;Max_cycle;Signal;HPM_P1;HPM_P2
2022/12/07 05:01:15;;;;;;;18.20;11.97;;;4.20;99.90;;;3.80;nan;98163.03;5599728;23;20953;-75
2022/12/07 05:03:43;;;;;;;19.40;11.70;;;4.20;99.90;;;3.85;nan;98171.72;4909146;29;20455;-74
2022/12/07 05:06:12;;;;;;;17.37;10.77;;;4.30;99.90;;;3.86;nan;98164.97;4908412;29;21448;-74
2022/12/07 05:08:39;;;;;;;18.40;11.23;;;4.30;99.90;;;3.89;nan;98160.03;4909584;29;20465;-74
2022/12/07 05:11:07;;;;;;;18.30;11.87;;;4.40;99.90;;;3.85;nan;98151.38;4909826;29;20479;-74
2022/12/07 05:13:34;;;;;;;35.20;12.27;;;4.30;99.90;;;3.86;nan;98164.97;4909571;29;20459;-74
2022/12/07 05:16:01;;;;;;;16.73;9.97;;;4.30;99.90;;;3.88;nan;98166.78;4909143;29;20474;-74
2022/12/07 05:18:29;;;;;;;17.77;11.00;;;4.30;99.90;;;3.88;nan;98163.34;4909748;29;20466;-74
2022/12/07 05:20:56;;;;;;;18.57;11.67;;;4.40;99.90;;;3.82;nan;98166.50;4908077;29;20513;-74
2022/12/07 05:23:23;;;;;;;17.80;10.77;;;4.30;99.90;;;3.86;nan;98165.81;4909744;29;20466;-74
2022/12/07 05:25:51;;;;;;;19.20;11.90;;;4.40;99.90;;;3.84;nan;98166.56;4909830;29;21129;-74
2022/12/07 05:28:18;;;;;;;17.00;11.17;;;4.30;99.90;;;3.87;nan;98159.06;4909122;29;20462;-65
2022/12/07 05:30:45;;;;;;;18.67;11.10;;;4.30;99.90;;;3.82;nan;98155.47;4908137;29;20475;-65
2022/12/07 05:33:11;;;;;;;19.13;12.00;;;4.30;99.90;;;3.71;nan;98152.44;4909909;29;20462;-76
2022/12/07 05:35:40;;;;;;;17.10;10.97;;;4.30;99.90;;;3.78;nan;98149.38;4911482;29;20478;-75
2022/12/07 05:38:07;;;;;;;19.40;11.30;;;4.30;99.90;;;3.87;nan;98149.75;4911650;29;20490;-75
2022/12/07 05:40:34;;;;;;;23.17;12.80;;;4.30;99.90;;;3.81;nan;98157.16;4911872;29;20514;-78
2022/12/07 05:43:01;;;;;;;22.20;12.00;;;4.30;99.90;;;3.84;nan;98154.72;4911459;29;20458;-75
2022/12/07 05:45:28;;;;;;;21.20;12.73;;;4.30;99.90;;;3.86;nan;98158.19;4913197;29;20461;-76
2022/12/07 05:47:55;;;;;;;18.63;12.10;;;4.40;99.90;;;3.85;nan;98163.22;4914730;29;20450;-76
2022/12/07 05:50:22;;;;;;;19.80;12.53;;;4.40;99.90;;;3.87;nan;98159.94;4914556;29;20451;-75
2022/12/07 05:52:50;;;;;;;19.47;12.70;;;4.30;99.90;;;3.87;nan;98154.84;4913669;29;20461;-76
2022/12/07 05:55:17;;;;;;;24.00;12.80;;;4.40;99.90;;;3.84;nan;98148.78;4914444;29;20463;-76
2022/12/07 05:59:22;;;;;;;21.50;12.73;;;4.30;99.90;;;3.85;nan;98163.22;4913850;29;20474;-76
2022/12/07 06:00:31;;;;;;;19.30;11.77;;;4.30;99.90;;;3.89;nan;98157.50;4914738;29;20498;-75
2022/12/07 06:02:57;;;;;;;18.30;11.43;;;4.30;99.90;;;3.93;nan;98157.69;4908450;29;20467;-75
2022/12/07 06:05:25;;;;;;;22.20;12.90;;;4.40;99.90;;;3.96;nan;98160.34;4895669;29;20471;-76
2022/12/07 06:07:53;;;;;;;23.67;13.40;;;4.40;99.90;;;3.96;nan;98162.03;4895593;29;20467;-75
2022/12/07 06:10:20;;;;;;;21.83;13.63;;;4.40;99.90;;;3.99;nan;98154.56;4896147;29;20463;-75
2022/12/07 06:12:46;;;;;;;21.30;13.10;;;4.40;99.90;;;3.99;nan;98154.56;4896349;29;20457;-75
2022/12/07 06:15:13;;;;;;;18.57;12.17;;;4.40;99.90;;;4.01;nan;98153.81;4896314;29;20460;-76
2022/12/07 06:17:41;;;;;;;22.20;12.20;;;4.40;99.90;;;3.98;nan;98156.19;4896718;29;20511;-76
2022/12/07 06:20:08;;;;;;;22.77;13.63;;;4.40;99.90;;;4.00;nan;98151.22;4896075;29;20506;-75
2022/12/07 06:22:37;;;;;;;20.37;12.73;;;4.40;99.90;;;4.01;nan;98153.81;4895161;29;20494;-75
2022/12/07 06:25:08;;;;;;;16.07;11.43;;;4.40;99.90;;;4.02;nan;98165.72;4895276;29;20471;-75
2022/12/07 06:27:35;;;;;;;22.13;11.80;;;4.50;99.90;;;4.05;nan;98167.53;4895076;29;20448;-76
2022/12/07 06:30:06;;;;;;;21.00;12.00;;;4.50;99.90;;;3.99;nan;98173.22;4894926;29;20460;-75
2022/12/07 06:32:33;;;;;;;19.27;12.10;;;4.50;99.90;;;4.00;nan;98166.47;4895773;29;20575;-75
2022/12/07 06:35:00;;;;;;;18.40;11.50;;;4.50;99.90;;;4.04;nan;98164.09;4896501;29;20464;-76
2022/12/07 06:37:27;;;;;;;18.73;11.80;;;4.50;99.90;;;3.94;nan;98166.19;4894998;29;20464;-76
2022/12/07 06:39:54;;;;;;;23.43;13.07;;;4.50;99.90;;;3.91;nan;98169.47;4897651;29;20507;-75
2022/12/07 06:42:23;;;;;;;20.87;13.07;;;4.40;99.90;;;3.97;nan;98173.94;4896620;29;20487;-75
2022/12/07 06:44:50;;;;;;;20.73;12.47;;;4.40;99.90;;;3.91;nan;98171.13;4895214;29;20464;-75
2022/12/07 06:47:17;;;;;;;21.50;12.17;;;4.40;99.90;;;3.95;nan;98167.91;4894461;29;20846;-77
2022/12/07 06:49:44;;;;;;;19.97;11.73;;;4.40;99.90;;;3.97;nan;98169.72;4894943;29;21150;-75
2022/12/07 06:52:11;;;;;;;17.67;12.10;;;4.40;99.90;;;3.96;nan;98170.53;4894746;29;20882;-75
2022/12/07 06:54:38;;;;;;;23.73;12.27;;;4.40;99.90;;;4.03;nan;98179.31;4894644;29;20819;-75
2022/12/07 06:57:05;;;;;;;18.57;10.90;;;4.40;99.90;;;4.00;nan;98171.56;4893920;29;20441;-76
2022/12/07 06:59:33;;;;;;;17.80;11.53;;;4.50;99.90;;;4.03;nan;98169.13;4895333;29;20460;-75
2022/12/07 07:02:00;;;;;;;18.93;12.10;;;4.50;99.90;;;3.96;nan;98174.75;4895430;29;20491;-75
2022/12/07 07:04:27;;;;;;;17.53;10.73;;;4.50;99.90;;;3.81;nan;98184.25;4895178;29;20847;-75
2022/12/07 07:06:54;;;;;;;19.10;11.87;;;4.40;99.90;;;3.84;nan;98181.81;4894726;29;20468;-75
2022/12/07 07:09:21;;;;;;;19.23;10.80;;;4.40;99.90;;;3.90;nan;98184.66;4894629;29;20456;-76
2022/12/07 07:11:47;;;;;;;19.03;11.30;;;4.40;99.90;;;3.86;nan;98182.75;4894305;29;20888;-75
2022/12/07 07:14:18;;;;;;;19.93;10.90;;;4.40;99.90;;;3.82;nan;98180.91;4895374;29;20463;-76
2022/12/07 07:16:47;;;;;;;19.57;12.23;;;4.30;99.90;;;3.81;nan;98174.94;4894602;29;20478;-75
2022/12/07 07:19:14;;;;;;;17.03;10.43;;;4.30;99.90;;;3.78;nan;98176.44;4894668;29;20452;-76
2022/12/07 07:21:40;;;;;;;18.77;11.37;;;4.30;99.90;;;3.76;nan;98179.78;4894682;29;20523;-75
2022/12/07 07:24:08;;;;;;;18.53;11.63;;;4.30;99.90;;;3.76;nan;98189.97;4894790;29;20462;-76
2022/12/07 07:26:35;;;;;;;21.40;12.63;;;4.30;99.90;;;3.84;nan;98192.00;4895192;29;20460;-77
2022/12/07 07:29:02;;;;;;;17.20;10.83;;;4.30;99.90;;;3.86;nan;98191.25;4895117;29;20456;-76
2022/12/07 07:31:29;;;;;;;16.90;11.40;;;4.30;99.90;;;3.63;nan;98186.81;4895836;29;20547;-76
2022/12/07 07:33:58;;;;;;;17.17;11.43;;;4.20;99.90;;;3.60;nan;98194.31;4896013;29;20466;-76
2022/12/07 07:36:25;;;;;;;16.13;10.00;;;4.20;99.90;;;3.68;nan;98186.22;4901667;29;20455;-75
2022/12/07 07:38:52;;;;;;;18.27;11.10;;;4.20;99.90;;;3.75;nan;98192.44;4904232;29;21039;-76
2022/12/07 07:41:19;;;;;;;16.80;10.87;;;4.20;99.90;;;3.62;nan;98188.47;4894621;29;21016;-76
2022/12/07 07:43:46;;;;;;;17.17;9.97;;;4.20;99.90;;;3.53;nan;98190.59;4893028;29;20508;-77
2022/12/07 07:46:13;;;;;;;17.77;11.50;;;4.10;99.90;;;3.52;nan;98191.41;4892345;29;20464;-77
2022/12/07 07:48:40;;;;;;;15.63;10.40;;;4.10;99.90;;;3.60;nan;98195.16;4892782;29;20524;-78
2022/12/07 07:51:09;;;;;;;20.20;11.40;;;4.10;99.90;;;3.66;nan;98192.88;4892879;29;20480;-76
2022/12/07 07:53:36;;;;;;;20.40;11.60;;;4.10;99.90;;;3.73;nan;98199.13;4900052;29;20956;-80
2022/12/07 07:56:04;;;;;;;24.93;12.80;;;4.20;99.90;;;3.70;nan;98192.25;4891782;29;20844;-76
2022/12/07 07:58:31;;;;;;;17.80;11.17;;;4.20;99.90;;;3.75;nan;98198.41;4892256;29;20456;-80
2022/12/07 08:01:04;;;;;;;16.83;10.37;;;4.20;99.90;;;3.81;nan;98197.81;4892433;29;20893;-78
2022/12/07 08:03:31;;;;;;;17.27;10.93;;;4.20;99.90;;;3.86;nan;98200.56;4892252;29;21081;-76
2022/12/07 08:05:58;;;;;;;17.10;11.10;;;4.30;99.90;;;3.82;nan;98202.09;4891870;29;20989;-79
2022/12/07 08:08:27;;;;;;;19.83;11.00;;;4.30;99.90;;;3.83;nan;98202.97;4891570;29;20468;-77
2022/12/07 08:10:54;;;;;;;17.00;10.63;;;4.30;99.90;;;3.87;nan;98208.25;4892305;29;20480;-77
2022/12/07 08:13:21;;;;;;;18.73;10.73;;;4.30;99.90;;;3.85;nan;98211.53;4892410;29;20559;-77
2022/12/07 08:15:49;;;;;;;23.07;11.00;;;4.30;99.90;;;3.75;nan;98210.25;4890196;29;20555;-75
2022/12/07 08:18:16;;;;;;;16.90;9.60;;;4.30;99.90;;;3.76;nan;98204.34;4890351;29;20464;-78
2022/12/07 08:20:43;;;;;;;17.20;11.50;;;4.30;99.90;;;3.73;nan;98209.31;4890163;29;20504;-77
2022/12/07 08:23:12;;;;;;;18.70;11.40;;;4.30;99.90;;;3.47;nan;98208.09;4890863;29;20940;-77
2022/12/07 08:25:41;;;;;;;19.63;11.50;;;4.20;99.90;;;3.45;nan;98205.47;4890283;29;20948;-78
2022/12/07 08:28:08;;;;;;;21.13;12.30;;;4.10;99.90;;;3.50;nan;98218.41;4889555;29;20463;-76
2022/12/07 08:30:35;;;;;;;19.90;11.40;;;4.10;99.90;;;3.44;nan;98207.94;4890245;29;20478;-78
2022/12/07 08:33:02;;;;;;;18.10;10.60;;;4.10;99.90;;;3.40;nan;98212.03;4889978;29;20551;-77
2022/12/07 08:35:29;;;;;;;14.73;10.23;;;4.00;99.90;;;3.39;nan;98215.38;4890486;29;20464;-77
2022/12/07 08:37:57;;;;;;;17.43;10.07;;;4.00;99.90;;;3.40;nan;98212.03;4889380;29;20554;-77
2022/12/07 08:40:24;;;;;;;18.83;11.30;;;4.00;99.90;;;3.47;nan;98215.72;4889506;29;20507;-77
2022/12/07 08:42:53;;;;;;;14.10;8.93;;;4.00;99.90;;;3.40;nan;98213.69;4889189;29;20470;-78
2022/12/07 08:45:22;;;;;;;17.47;10.00;;;4.00;99.90;;;3.33;nan;98214.19;4890333;29;20459;-78
2022/12/07 08:47:58;;;;;;;18.10;11.97;;;4.00;99.90;;;3.43;nan;98217.25;4889860;29;20461;-78
2022/12/07 08:50:25;;;;;;;16.37;10.63;;;4.00;99.90;;;3.34;nan;98216.81;4890180;29;20436;-75
2022/12/07 08:52:57;;;;;;;16.23;10.77;;;4.00;99.90;;;3.41;nan;98223.06;4890466;29;20460;-78
2022/12/07 08:55:25;;;;;;;17.93;10.80;;;4.00;99.90;;;3.36;nan;98221.97;4890197;29;20981;-78
2022/12/07 08:57:54;;;;;;;18.70;10.60;;;3.90;99.90;;;3.37;nan;98221.16;4889813;29;20456;-76
2022/12/07 09:00:22;;;;;;;16.50;9.60;;;4.00;99.90;;;3.37;nan;98224.59;4893138;29;20460;-78
2022/12/07 09:02:49;;;;;;;15.73;9.17;;;3.90;99.90;;;3.22;nan;98223.84;4892927;29;20448;-79
2022/12/07 09:05:16;;;;;;;14.40;9.30;;;3.90;99.90;;;3.27;nan;98219.88;4892810;29;21011;-78
2022/12/07 09:07:47;;;;;;;14.63;9.57;;;3.90;99.90;;;3.30;nan;98216.59;4892879;29;20826;-77
2022/12/07 09:10:14;;;;;;;19.73;10.27;;;3.90;99.90;;;3.32;nan;98215.88;4893354;29;20448;-78
2022/12/07 09:12:41;;;;;;;16.10;11.10;;;3.90;99.90;;;3.38;nan;98213.63;4892944;29;20466;-76
2022/12/07 09:15:09;;;;;;;16.73;10.03;;;3.90;99.90;;;3.33;nan;98215.06;4893387;29;20449;-77
2022/12/07 09:17:37;;;;;;;16.93;9.80;;;3.90;99.90;;;3.40;nan;98214.56;4891936;29;20464;-78
2022/12/07 09:20:06;;;;;;;16.43;9.50;;;4.00;99.90;;;3.43;nan;98214.69;4894715;29;20874;-78
2022/12/07 09:22:34;;;;;;;16.97;9.53;;;4.00;99.90;;;3.46;nan;98213.97;4897021;29;20496;-77
2022/12/07 09:25:02;;;;;;;15.60;9.17;;;4.00;99.90;;;3.47;nan;98221.69;4897362;29;20470;-76
2022/12/07 09:27:29;;;;;;;14.30;8.77;;;4.00;99.90;;;3.34;nan;98213.41;4896386;29;21318;-76
2022/12/07 09:29:56;;;;;;;14.20;9.03;;;4.00;99.90;;;3.40;nan;98216.25;4897504;29;20460;-76
2022/12/07 09:32:24;;;;;;;16.63;8.77;;;4.00;99.90;;;3.48;nan;98214.94;4897425;29;20482;-79
2022/12/07 09:34:51;;;;;;;19.90;9.80;;;4.00;99.90;;;3.48;nan;98220.03;4897242;29;20474;-78
2022/12/07 09:37:19;;;;;;;17.30;9.33;;;4.10;99.90;;;3.51;nan;98214.19;4896089;29;20470;-75
2022/12/07 09:39:46;;;;;;;16.00;9.00;;;4.10;99.90;;;3.55;nan;98216.06;4896966;29;20467;-79
2022/12/07 09:42:29;;;;;;;18.43;8.87;;;4.10;99.90;;;3.56;nan;98213.59;4896877;29;21024;-78
2022/12/07 09:44:57;;;;;;;13.03;8.60;;;4.10;99.90;;;3.59;nan;98216.31;4897366;29;20443;-76
2022/12/07 09:47:26;;;;;;;13.13;8.00;;;4.20;99.90;;;3.58;nan;98211.16;4897153;29;21312;-77
2022/12/07 09:49:59;;;;;;;12.00;7.90;;;4.20;99.90;;;3.64;nan;98202.13;4897638;29;20464;-79
2022/12/07 09:52:29;;;;;;;14.00;8.87;;;4.20;99.90;;;3.60;nan;98210.41;4896789;29;21440;-78
2022/12/07 09:54:56;;;;;;;11.43;8.17;;;4.20;99.90;;;3.70;nan;98199.88;4896901;29;20460;-78
2022/12/07 09:57:30;;;;;;;17.37;9.43;;;4.20;99.90;;;3.66;nan;98197.97;4896199;29;20467;-79
2022/12/07 10:00:01;;;;;;;14.40;8.97;;;4.20;99.90;;;3.70;nan;98197.34;4897299;29;20463;-79
2022/12/07 10:02:41;;;;;;;13.37;8.53;;;4.30;99.90;;;3.85;nan;98193.72;4897224;29;20507;-79
2022/12/07 10:05:15;;;;;;;15.00;9.20;;;4.30;99.90;;;3.84;nan;98189.44;4896826;29;20444;-79
2022/12/07 10:07:43;;;;;;;16.03;9.13;;;4.40;99.90;;;3.78;nan;98186.63;4896016;29;20459;-76
2022/12/07 10:10:18;;;;;;;14.90;9.53;;;4.40;99.90;;;3.75;nan;98180.59;4896789;29;20452;-78
2022/12/07 10:13:01;;;;;;;12.30;8.23;;;4.40;99.90;;;3.72;nan;98180.47;4898316;29;20453;-78
2022/12/07 10:15:52;;;;;;;13.53;8.80;;;4.30;99.90;;;3.78;nan;98182.44;4914077;29;20454;-79
2022/12/07 10:18:31;;;;;;;18.40;8.60;;;4.30;99.90;;;3.82;nan;98186.84;4916605;29;20495;-78
2022/12/07 10:21:10;;;;;;;14.93;8.27;;;4.30;99.90;;;3.79;nan;98185.84;4915362;29;20494;-77
2022/12/07 10:23:40;;;;;;;11.97;7.77;;;4.40;99.90;;;3.79;nan;98181.63;4915224;29;21474;-79
2022/12/07 10:26:28;;;;;;;12.87;8.50;;;4.40;99.90;;;3.82;nan;98180.91;4915533;29;20465;-79
2022/12/07 10:28:57;;;;;;;11.73;8.33;;;4.40;99.90;;;3.83;nan;98180.97;4924929;29;20503;-78
2022/12/07 10:31:24;;;;;;;12.80;8.00;;;4.40;99.90;;;3.93;nan;98178.03;4930975;29;20472;-76
2022/12/07 10:33:55;;;;;;;10.73;7.47;;;4.40;99.90;;;3.88;nan;98179.50;4917376;29;20546;-78
2022/12/07 10:36:26;;;;;;;11.47;7.27;;;4.50;99.90;;;3.93;nan;98183.13;4911571;29;20826;-77
2022/12/07 10:39:00;;;;;;;13.37;7.70;;;4.50;99.90;;;3.84;nan;98171.66;4911804;29;20467;-79
2022/12/07 10:41:28;;;;;;;14.93;8.30;;;4.50;99.90;;;3.84;nan;98169.97;4912232;29;20508;-79
2022/12/07 10:43:57;;;;;;;41.70;22.93;;;4.40;99.90;;;3.74;nan;98162.75;4913911;29;20510;-77
2022/12/07 10:47:01;;;;;;;33.60;17.17;;;4.40;99.90;;;3.73;nan;98163.56;4912579;29;21320;-78
2022/12/07 10:50:26;;;;;;;47.80;26.13;;;4.40;99.90;;;3.84;nan;98164.03;4915649;29;20459;-78
2022/12/07 10:53:18;;;;;;;32.63;14.87;;;4.40;99.90;;;3.87;nan;98151.44;4875601;29;20463;-78
2022/12/07 10:56:32;;;;;;;14.33;7.30;;;4.40;99.90;;;3.80;nan;98147.78;4873842;29;20480;-78
2022/12/07 10:59:24;;;;;;;19.83;11.73;;;4.40;99.90;;;3.79;nan;98152.81;4911437;29;20997;-78
2022/12/07 11:02:07;;;;;;;10.63;6.63;;;4.40;99.90;;;3.74;nan;98150.91;4914218;29;20503;-79
2022/12/07 11:04:44;;;;;;;9.47;6.43;;;4.40;99.90;;;3.74;nan;98153.44;4914368;29;20459;-76
2022/12/07 11:07:23;;;;;;;9.00;6.10;;;4.30;99.90;;;3.74;nan;98139.88;4913961;29;20455;-77
2022/12/07 11:10:13;;;;;;;14.67;7.63;;;4.30;99.90;;;3.77;nan;98142.53;4914292;29;20475;-77
2022/12/07 11:13:12;;;;;;;25.00;14.20;;;4.30;99.90;;;3.73;nan;98133.91;4914282;29;20463;-78
2022/12/07 11:15:58;;;;;;;11.70;7.13;;;4.30;99.90;;;3.81;nan;98136.81;4913866;29;20464;-78
2022/12/07 11:18:32;;;;;;;11.60;6.90;;;4.40;99.90;;;3.72;nan;98131.31;4913903;29;20462;-79
2022/12/07 11:21:18;;;;;;;9.07;6.10;;;4.40;99.90;;;3.81;nan;98134.25;4914333;29;20996;-77
2022/12/07 11:23:59;;;;;;;10.63;6.40;;;4.40;99.90;;;3.83;nan;98131.78;4914470;29;20857;-79
2022/12/07 11:26:51;;;;;;;9.13;5.90;;;4.40;99.90;;;3.81;nan;98128.31;4914374;29;20442;-77
2022/12/07 11:29:48;;;;;;;11.20;6.27;;;4.40;99.90;;;3.89;nan;98126.97;4914647;29;20821;-78
2022/12/07 11:32:28;;;;;;;17.63;11.10;;;4.40;99.90;;;3.86;nan;98126.81;4913931;29;20475;-79
2022/12/07 11:35:09;;;;;;;12.53;6.00;;;4.40;99.90;;;3.93;nan;98123.75;4914091;29;20461;-79
2022/12/07 11:37:41;;;;;;;9.97;6.00;;;4.50;99.90;;;3.89;nan;98121.91;4913646;29;20463;-78
2022/12/07 11:40:21;;;;;;;8.97;6.57;;;4.50;99.90;;;3.91;nan;98118.59;4913611;29;20550;-78
2022/12/07 11:43:00;;;;;;;11.23;7.23;;;4.50;99.90;;;4.02;nan;98111.44;4913760;29;20491;-78
2022/12/07 11:45:31;;;;;;;9.70;6.83;;;4.60;99.90;;;3.98;nan;98120.59;4913341;29;20447;-77
2022/12/07 11:48:03;;;;;;;13.10;9.20;;;4.60;99.90;;;4.08;nan;98114.22;4913948;29;20451;-79
2022/12/07 11:50:39;;;;;;;11.77;7.20;;;4.60;99.90;;;4.16;nan;98112.88;4914887;29;20551;-77
2022/12/07 11:53:19;;;;;;;10.00;6.37;;;4.70;99.90;;;4.17;nan;98114.63;4914608;29;20465;-80
2022/12/07 11:55:53;;;;;;;10.17;6.63;;;4.70;99.90;;;4.20;nan;98109.69;4912948;29;20451;-79
2022/12/07 11:58:39;;;;;;;11.47;7.00;;;4.80;99.90;;;4.23;nan;98104.72;4910990;29;20944;-68
2022/12/07 12:01:23;;;;;;;9.87;7.20;;;4.80;99.90;;;4.29;nan;98099.91;4910203;29;20479;-69
2022/12/07 12:03:55;;;;;;;14.00;7.50;;;4.90;99.90;;;4.31;nan;98095.75;4910269;29;20435;-69
2022/12/07 12:06:22;;;;;;;11.73;6.90;;;4.90;99.90;;;4.21;nan;98088.53;4909454;29;20447;-65
2022/12/07 12:09:01;;;;;;;11.37;7.47;;;4.80;99.90;;;4.25;nan;98086.97;4910129;29;20554;-77
2022/12/07 12:11:53;;;;;;;11.73;7.40;;;4.90;99.90;;;4.30;nan;98081.28;4911640;29;20486;-76
2022/12/07 12:14:43;;;;;;;14.87;7.97;;;4.90;99.90;;;4.27;nan;98087.91;4910427;29;20459;-78
2022/12/07 12:17:51;;;;;;;11.30;7.70;;;4.90;99.90;;;4.29;nan;98084.63;4909712;29;20468;-77
2022/12/07 12:20:27;;;;;;;11.27;7.67;;;4.90;99.90;;;4.27;nan;98082.81;4910888;29;20446;-77
2022/12/07 12:23:02;;;;;;;14.83;7.53;;;4.90;99.90;;;4.31;nan;98082.16;4910202;29;20932;-77
2022/12/07 12:25:42;;;;;;;13.40;8.23;;;4.90;99.90;;;4.34;nan;98087.38;4910063;29;21275;-77
2022/12/07 12:28:25;;;;;;;13.83;8.43;;;4.90;99.90;;;4.40;nan;98081.66;4909668;29;20514;-77
2022/12/07 12:31:10;;;;;;;18.50;9.00;;;4.90;99.90;;;4.32;nan;98082.22;4910832;29;20856;-79
2022/12/07 12:33:39;;;;;;;14.77;10.20;;;4.90;99.90;;;4.19;nan;98087.59;4910683;29;20443;-77
2022/12/07 12:36:24;;;;;;;15.40;10.07;;;4.90;99.90;;;4.25;nan;98082.75;4909530;29;20459;-77
2022/12/07 12:39:07;;;;;;;16.37;8.07;;;4.80;99.90;;;4.22;nan;98082.63;4910675;29;20507;-77
2022/12/07 12:42:06;;;;;;;13.60;8.50;;;4.80;99.90;;;4.26;nan;98078.53;4910194;29;20503;-77
2022/12/07 12:45:20;;;;;;;11.97;8.00;;;4.80;99.90;;;4.19;nan;98074.88;4908905;29;20455;-77
2022/12/07 12:47:56;;;;;;;14.17;9.67;;;4.80;99.90;;;4.28;nan;98080.31;4908630;29;20550;-76
2022/12/07 12:50:31;;;;;;;11.90;8.63;;;4.80;99.90;;;4.12;nan;98075.44;4909877;29;20455;-76
2022/12/07 12:53:22;;;;;;;16.50;9.37;;;4.80;99.90;;;4.10;nan;98069.41;4910070;29;20435;-77
2022/12/07 12:56:36;;;;;;;14.53;8.90;;;4.70;99.90;;;4.24;nan;98075.94;4909173;29;20459;-77
2022/12/07 12:59:24;;;;;;;15.60;8.33;;;4.70;99.90;;;4.17;nan;98070.50;4909312;29;20978;-78
2022/12/07 13:01:56;;;;;;;13.70;9.13;;;4.80;99.90;;;4.17;nan;98067.97;4910070;29;20922;-78
2022/12/07 13:04:54;;;;;;;17.23;9.80;;;4.70;99.90;;;4.25;nan;98070.03;4908552;29;20455;-77
2022/12/07 13:07:57;;;;;;;16.17;9.07;;;4.80;99.90;;;4.12;nan;98062.72;4906777;29;20467;-77
2022/12/07 13:10:47;;;;;;;16.70;9.33;;;4.80;99.90;;;4.03;nan;98063.19;4908397;29;20457;-77
2022/12/07 13:13:37;;;;;;;17.53;10.53;;;4.70;99.90;;;3.96;nan;98057.75;4903648;29;20497;-77
2022/12/07 13:16:42;;;;;;;14.80;9.37;;;4.60;99.90;;;3.95;nan;98053.47;4907120;29;20481;-77
2022/12/07 13:19:59;;;;;;;16.60;9.83;;;4.60;99.90;;;3.93;nan;98050.88;4908840;29;20450;-77
2022/12/07 13:22:44;;;;;;;14.73;9.50;;;4.50;99.90;;;3.97;nan;98049.31;4895682;29;20546;-78
2022/12/07 13:25:19;;;;;;;16.17;9.10;;;4.60;99.90;;;4.03;nan;98047.06;4894398;29;20507;-78
2022/12/07 13:27:58;;;;;;;14.80;9.70;;;4.60;99.90;;;4.08;nan;98044.69;4893365;29;20468;-78
2022/12/07 13:30:25;;;;;;;18.13;10.13;;;4.60;99.90;;;4.18;nan;98049.34;4894881;29;20823;-79
2022/12/07 13:32:59;;;;;;;22.70;10.40;;;4.70;99.90;;;4.15;nan;98049.25;4894782;29;20459;-78
2022/12/07 13:35:37;;;;;;;16.97;9.40;;;4.70;99.90;;;4.25;nan;98046.28;4891931;29;20436;-77
2022/12/07 13:38:17;;;;;;;14.90;8.70;;;4.80;99.90;;;4.15;nan;98049.25;4890704;29;20884;-77
2022/12/07 13:41:00;;;;;;;14.20;8.97;;;4.80;99.90;;;4.16;nan;98044.22;4891412;29;20487;-77
2022/12/07 13:43:27;;;;;;;15.33;9.93;;;4.70;99.90;;;4.09;nan;98044.78;4891142;29;20503;-77
2022/12/07 13:45:58;;;;;;;16.40;10.43;;;4.70;99.90;;;4.07;nan;98041.28;4890590;29;20468;-77
2022/12/07 13:48:37;;;;;;;15.33;9.03;;;4.70;99.90;;;4.06;nan;98042.09;4890397;29;20917;-77
2022/12/07 13:51:05;;;;;;;14.30;9.53;;;4.70;99.90;;;4.16;nan;98043.34;4890861;29;20581;-77
2022/12/07 13:53:32;;;;;;;15.57;9.93;;;4.70;99.90;;;4.22;nan;98043.59;4890409;29;20463;-76
2022/12/07 13:56:01;;;;;;;17.93;10.53;;;4.70;99.90;;;4.18;nan;98034.09;4890682;29;20463;-77
2022/12/07 13:58:33;;;;;;;16.03;10.30;;;4.70;99.90;;;4.08;nan;98037.94;4891558;29;20476;-77
2022/12/07 14:01:01;;;;;;;18.27;10.77;;;4.70;99.90;;;4.15;nan;98031.44;4890482;29;20498;-76
2022/12/07 14:03:33;;;;;;;17.87;10.33;;;4.70;99.90;;;4.15;nan;98039.94;4893052;29;20523;-79
2022/12/07 14:06:26;;;;;;;18.63;10.10;;;4.70;99.90;;;4.26;nan;98033.59;4893100;29;20468;-79
2022/12/07 14:09:19;;;;;;;14.30;8.90;;;4.80;99.90;;;4.17;nan;98040.00;4896504;29;20980;-79
2022/12/07 14:11:49;;;;;;;18.53;11.30;;;4.80;99.90;;;4.19;nan;98039.28;4896131;29;20480;-79
2022/12/07 14:14:21;;;;;;;16.60;10.10;;;4.80;99.90;;;4.18;nan;98036.63;4896072;29;20452;-79
2022/12/07 14:17:00;;;;;;;16.23;10.07;;;4.80;99.90;;;4.18;nan;98044.28;4894734;29;20452;-79
2022/12/07 14:19:51;;;;;;;22.63;10.87;;;4.80;99.90;;;4.24;nan;98040.31;4896318;29;20462;-81
2022/12/07 14:22:34;;;;;;;24.13;10.23;;;4.80;99.90;;;4.10;nan;98038.88;4896197;29;20500;-78
2022/12/07 14:25:23;;;;;;;16.53;10.73;;;4.80;99.90;;;4.17;nan;98043.41;4897265;29;20495;-78
2022/12/07 14:27:57;;;;;;;20.13;10.43;;;4.70;99.90;;;4.13;nan;98036.47;4896639;29;20448;-80
2022/12/07 14:30:27;;;;;;;17.37;10.63;;;4.70;99.90;;;4.23;nan;98040.25;4895934;29;20428;-80
2022/12/07 14:32:59;;;;;;;18.00;10.47;;;4.80;99.90;;;4.29;nan;98036.31;4896297;29;20452;-79
2022/12/07 14:35:29;;;;;;;20.33;11.47;;;4.80;99.90;;;4.20;nan;98028.28;4895704;29;20805;-79
2022/12/07 14:37:57;;;;;;;21.40;11.60;;;4.80;99.90;;;4.21;nan;98037.66;4896090;29;20475;-79
2022/12/07 14:40:26;;;;;;;20.80;11.00;;;4.80;99.90;;;4.26;nan;98035.28;4895924;29;20836;-78
2022/12/07 14:43:00;;;;;;;19.07;12.03;;;4.80;99.90;;;4.29;nan;98031.22;4896404;29;20559;-80
2022/12/07 14:45:27;;;;;;;17.53;10.90;;;4.80;99.90;;;4.36;nan;98033.97;4894515;29;20456;-80
2022/12/07 14:47:54;;;;;;;18.10;11.60;;;4.90;99.90;;;4.32;nan;98028.78;4896140;29;20436;-81
2022/12/07 14:50:22;;;;;;;15.77;10.80;;;4.90;99.90;;;4.38;nan;98022.19;4896145;29;21121;-80
2022/12/07 14:52:56;;;;;;;22.40;10.90;;;4.90;99.90;;;4.37;nan;98028.09;4897033;29;20464;-79
2022/12/07 14:55:26;;;;;;;21.17;11.27;;;4.90;99.90;;;4.29;nan;98033.75;4896210;29;20567;-81
2022/12/07 14:57:54;;;;;;;17.83;11.03;;;4.90;99.90;;;4.34;nan;98033.94;4895262;29;20471;-81
2022/12/07 15:00:23;;;;;;;18.73;11.07;;;4.90;99.90;;;4.25;nan;98036.97;4896368;29;20464;-80
2022/12/07 15:02:52;;;;;;;22.80;11.97;;;4.90;99.90;;;4.29;nan;98036.31;4895244;29;20825;-81
2022/12/07 15:05:19;;;;;;;19.07;11.40;;;4.90;99.90;;;4.26;nan;98035.28;4894808;29;20542;-78
2022/12/07 15:07:48;;;;;;;23.77;13.30;;;4.90;99.90;;;4.23;nan;98038.59;4894622;29;20460;-80
2022/12/07 15:10:20;;;;;;;20.37;12.00;;;4.80;99.90;;;4.16;nan;98040.81;4896119;29;20957;-79
2022/12/07 15:12:47;;;;;;;19.57;11.83;;;4.80;99.90;;;4.23;nan;98035.16;4897157;29;20458;-80
2022/12/07 15:15:14;;;;;;;18.83;10.93;;;4.80;99.90;;;4.20;nan;98032.50;4898034;29;20469;-80
2022/12/07 15:17:42;;;;;;;18.80;10.97;;;4.80;99.90;;;4.21;nan;98040.19;4896308;29;21646;-80
2022/12/07 15:20:14;;;;;;;17.40;10.50;;;4.80;99.90;;;4.29;nan;98032.84;4897906;29;20464;-80
2022/12/07 15:22:41;;;;;;;25.60;11.73;;;4.80;99.90;;;4.29;nan;98033.75;4898462;29;20587;-79
2022/12/07 15:25:14;;;;;;;21.90;14.73;;;4.80;99.90;;;4.28;nan;98036.22;4911258;29;20446;-79
2022/12/07 15:27:42;;;;;;;19.53;12.80;;;4.80;99.90;;;4.25;nan;98029.31;4908675;29;20499;-79
2022/12/07 15:30:10;;;;;;;23.20;13.27;;;4.80;99.90;;;4.14;nan;98034.78;4895138;29;20471;-79
2022/12/07 15:32:37;;;;;;;24.70;18.93;;;4.80;99.90;;;4.11;nan;98040.63;4895367;29;20846;-76
2022/12/07 15:35:04;;;;;;;26.63;13.43;;;4.70;99.90;;;4.08;nan;98034.53;4893961;29;20836;-80
2022/12/07 15:37:31;;;;;;;21.43;13.13;;;4.70;99.90;;;4.17;nan;98030.69;4893999;29;20463;-80
2022/12/07 15:39:58;;;;;;;30.27;15.10;;;4.70;99.90;;;4.25;nan;98034.41;4895195;29;20460;-77
2022/12/07 15:42:25;;;;;;;21.87;13.87;;;4.70;99.90;;;4.30;nan;98040.59;4894958;29;20504;-80
2022/12/07 15:45:05;;;;;;;19.63;12.37;;;4.80;99.90;;;4.38;nan;98034.91;4890774;29;20461;-79
2022/12/07 15:47:32;;;;;;;17.63;11.97;;;4.90;99.90;;;4.40;nan;98041.81;4891308;29;20479;-79
2022/12/07 15:50:00;;;;;;;22.80;13.03;;;4.90;99.90;;;4.37;nan;98035.72;4909946;29;20459;-79
2022/12/07 15:52:27;;;;;;;19.50;12.00;;;4.90;99.90;;;4.46;nan;98031.88;4911408;29;20467;-80
2022/12/07 15:54:54;;;;;;;19.10;11.60;;;4.90;99.90;;;4.48;nan;98022.63;4911518;29;20463;-80
2022/12/07 15:57:21;;;;;;;16.40;11.00;;;5.00;99.90;;;4.50;nan;98021.03;4914733;29;20544;-80
2022/12/07 15:59:48;;;;;;;17.63;12.20;;;5.00;99.90;;;4.55;nan;98029.69;4904086;29;20448;-80
2022/12/07 16:02:16;;;;;;;18.60;10.63;;;5.00;99.90;;;4.48;nan;98020.06;4891700;29;21068;-78